createdAt,value
2019-01-10T00:08:37.658Z,74.90
2019-01-10T00:12:42.203Z,75.10
2019-01-10T00:16:46.719Z,75.80
2019-01-10T00:20:51.235Z,75.10
2019-01-10T00:24:55.748Z,75.00
2019-01-10T00:29:00.306Z,75.20
2019-01-10T00:33:04.906Z,75.40
2019-01-10T00:37:09.398Z,75.20
2019-01-10T00:41:13.931Z,75.10
2019-01-10T00:45:18.491Z,74.90
2019-01-10T00:49:23.024Z,75.10
2019-01-10T00:53:27.516Z,75.00
2019-01-10T00:57:32.053Z,75.00
2019-01-10T01:01:36.578Z,74.90
2019-01-10T01:05:41.107Z,75.00
2019-01-10T01:09:45.644Z,75.00
2019-01-10T01:13:50.166Z,74.90
2019-01-10T01:17:54.693Z,75.00
2019-01-10T01:21:59.209Z,74.80
2019-01-10T01:26:03.742Z,75.00
2019-01-10T01:30:11.876Z,75.00
2019-01-10T01:34:16.394Z,75.20
2019-01-10T01:38:20.927Z,75.30
2019-01-10T01:42:25.434Z,75.30
2019-01-10T01:46:29.968Z,75.30
2019-01-10T01:55:50.640Z,74.90
2019-01-10T04:04:17.012Z,75.80
2019-01-10T04:21:17.596Z,75.90
2019-01-10T05:03:20.592Z,76.30
2019-01-10T05:09:57.340Z,76.30
2019-01-10T05:14:01.960Z,77.00
2019-01-10T05:18:08.107Z,77.20
2019-01-10T05:22:12.775Z,77.10
2019-01-10T05:26:17.322Z,77.20
2019-01-10T05:30:23.971Z,77.20
2019-01-10T05:34:28.560Z,77.30
2019-01-10T06:15:32.355Z,76.80
2019-01-10T08:33:36.314Z,77.20
2019-01-10T08:38:17.348Z,77.20
2019-01-10T11:02:33.235Z,77.50
2019-01-10T11:11:07.164Z,77.20
2019-01-10T11:21:20.682Z,77.20
2019-01-10T11:25:29.653Z,77.70
2019-01-10T11:31:18.803Z,77.10
2019-01-10T11:37:58.893Z,77.00
2019-01-10T11:42:03.722Z,77.50
2019-01-10T11:46:08.375Z,77.30
2019-01-10T11:50:13.391Z,77.20
2019-01-10T11:54:17.899Z,77.30
2019-01-10T11:58:22.459Z,78.20
2019-01-10T12:02:36.111Z,77.50
2019-01-10T12:06:34.439Z,77.30
2019-01-10T12:10:38.995Z,77.30
2019-01-10T12:14:43.554Z,77.30
2019-01-10T12:18:48.094Z,77.20
2019-01-10T12:24:54.659Z,76.60
2019-01-10T14:04:35.505Z,75.20
2019-01-10T14:10:42.951Z,75.30
2019-01-10T14:41:51.325Z,75.60
2019-01-10T15:58:20.446Z,76.40
2019-01-10T16:02:24.989Z,77.10
2019-01-10T16:09:08.121Z,76.50
2019-01-10T19:59:12.770Z,79.00
2019-01-10T20:03:17.279Z,79.80
2019-01-10T20:07:21.795Z,79.80
2019-01-10T20:11:26.355Z,79.60
2019-01-10T20:28:05.587Z,79.00
2019-01-10T21:44:44.435Z,79.40
2019-01-10T21:57:53.567Z,79.30
2019-01-10T22:05:14.403Z,79.40
